createdAt,value
2023-01-22T00:00:08.576Z,21.52
2023-01-22T00:00:45.624Z,22.17
2023-01-22T00:01:17.679Z,20.73
2023-01-22T00:01:49.209Z,20.10
2023-01-22T00:02:21.067Z,22.45
2023-01-22T00:02:52.634Z,21.67
2023-01-22T00:03:24.530Z,20.33
2023-01-22T00:03:57.029Z,21.17
2023-01-22T00:04:28.525Z,22.65
2023-01-22T00:05:00.032Z,21.95
2023-01-22T00:05:31.545Z,20.75
2023-01-22T00:06:03.161Z,23.08
2023-01-22T00:06:34.767Z,22.88
2023-01-22T00:07:06.657Z,22.60
2023-01-22T00:07:38.197Z,23.15
2023-01-22T00:08:09.749Z,20.85
2023-01-22T00:08:41.328Z,20.88
2023-01-22T00:09:12.979Z,22.45
2023-01-22T00:09:44.479Z,22.83
2023-01-22T00:10:16.557Z,22.90
2023-01-22T00:10:50.440Z,21.85
2023-01-22T00:11:22.017Z,21.92
2023-01-22T00:11:53.624Z,22.95
2023-01-22T00:12:25.482Z,21.60
2023-01-22T00:12:57.015Z,21.33
2023-01-22T00:13:28.660Z,20.65
2023-01-22T00:14:00.198Z,22.88
2023-01-22T00:14:31.824Z,22.63
2023-01-22T00:15:03.809Z,22.17
2023-01-22T00:15:38.763Z,22.42
2023-01-22T00:16:13.507Z,21.80
2023-01-22T00:16:45.268Z,21.80
2023-01-22T00:17:16.889Z,22.75
2023-01-22T00:17:48.442Z,21.88
2023-01-22T00:18:20.347Z,21.25
2023-01-22T00:18:51.867Z,21.67
2023-01-22T00:19:23.384Z,21.58
2023-01-22T00:19:55.021Z,19.35
2023-01-22T00:20:26.667Z,22.65
2023-01-22T00:20:58.312Z,22.52
2023-01-22T00:21:29.866Z,21.40
2023-01-22T00:22:01.431Z,21.77
2023-01-22T00:22:33.049Z,21.15
2023-01-22T00:23:04.567Z,19.80
2023-01-22T00:23:36.243Z,22.52
2023-01-22T00:24:08.304Z,20.88
2023-01-22T00:24:40.172Z,21.95
2023-01-22T00:25:12.498Z,21.30
2023-01-22T00:25:44.901Z,20.65
2023-01-22T00:26:17.527Z,20.70
2023-01-22T00:26:50.129Z,21.95
2023-01-22T00:27:23.175Z,20.92
2023-01-22T00:27:55.633Z,21.02
2023-01-22T00:28:27.389Z,20.42
2023-01-22T00:28:59.031Z,20.08
2023-01-22T00:29:30.601Z,21.88
2023-01-22T00:30:02.430Z,22.08
2023-01-22T00:30:36.136Z,20.80
2023-01-22T00:31:08.787Z,22.00
2023-01-22T00:31:40.545Z,22.17
2023-01-22T00:32:12.465Z,21.13
2023-01-22T00:32:46.923Z,21.60
2023-01-22T00:33:18.513Z,21.08
2023-01-22T00:33:50.057Z,23.42
2023-01-22T00:34:21.552Z,23.23
2023-01-22T00:34:55.022Z,21.20
2023-01-22T00:35:26.537Z,20.90
2023-01-22T00:36:07.163Z,21.33
2023-01-22T00:36:40.755Z,21.00
2023-01-22T00:37:12.764Z,20.50
2023-01-22T00:37:50.290Z,22.60
2023-01-22T00:38:21.849Z,22.30
2023-01-22T00:38:53.435Z,21.08
2023-01-22T00:39:25.459Z,20.77
2023-01-22T00:39:56.993Z,20.60
2023-01-22T00:40:28.582Z,21.85
2023-01-22T00:41:02.521Z,21.13
2023-01-22T00:41:34.270Z,21.20
2023-01-22T00:42:05.884Z,22.23
2023-01-22T00:42:39.393Z,20.60
2023-01-22T00:43:10.978Z,19.70
2023-01-22T00:43:42.629Z,20.50
2023-01-22T00:44:14.183Z,21.35
2023-01-22T00:44:45.781Z,21.23
2023-01-22T00:45:17.543Z,20.98
2023-01-22T00:45:49.170Z,20.20
2023-01-22T00:46:20.862Z,20.13
2023-01-22T00:46:52.954Z,21.88
2023-01-22T00:47:26.430Z,20.63
2023-01-22T00:47:58.038Z,21.38
2023-01-22T00:48:29.856Z,21.90
2023-01-22T00:49:03.637Z,21.00
2023-01-22T00:49:35.328Z,20.95
2023-01-22T00:50:07.280Z,20.63
2023-01-22T00:50:38.922Z,19.85
2023-01-22T00:51:13.061Z,20.45
2023-01-22T00:51:45.140Z,21.13
2023-01-22T00:52:16.637Z,20.48
2023-01-22T00:52:49.114Z,20.45
2023-01-22T00:53:20.677Z,20.75
2023-01-22T00:53:52.214Z,22.08
2023-01-22T00:54:23.818Z,21.65
2023-01-22T00:54:55.387Z,19.85
2023-01-22T00:55:27.421Z,20.15
2023-01-22T00:56:01.031Z,19.48
2023-01-22T00:56:33.412Z,21.00
2023-01-22T00:57:05.036Z,19.95
2023-01-22T00:57:37.475Z,19.73
2023-01-22T00:58:09.246Z,19.50
2023-01-22T00:58:41.567Z,21.50
2023-01-22T00:59:13.212Z,19.00
2023-01-22T00:59:45.783Z,19.63
2023-01-22T01:00:20.594Z,19.85
2023-01-22T01:00:53.440Z,19.33
2023-01-22T01:01:25.033Z,20.00
2023-01-22T01:01:56.827Z,19.85
2023-01-22T01:02:31.171Z,19.83
2023-01-22T01:03:24.624Z,20.25
2023-01-22T01:03:56.230Z,18.00
2023-01-22T01:04:27.765Z,19.85
2023-01-22T01:05:01.947Z,18.83
2023-01-22T01:05:33.559Z,19.98
2023-01-22T01:06:12.282Z,20.67
2023-01-22T01:06:44.005Z,19.60
2023-01-22T01:07:17.689Z,20.23
2023-01-22T01:07:49.278Z,20.02
2023-01-22T01:08:20.982Z,22.55
2023-01-22T01:08:52.605Z,21.33
2023-01-22T01:09:24.241Z,20.33
2023-01-22T01:09:55.766Z,20.80
2023-01-22T01:10:27.412Z,21.20
2023-01-22T01:11:01.676Z,21.60
2023-01-22T01:11:33.305Z,21.08
2023-01-22T01:12:04.888Z,20.63
2023-01-22T01:12:36.428Z,19.75
2023-01-22T01:13:08.059Z,21.50
2023-01-22T01:13:42.819Z,22.05
2023-01-22T01:14:14.474Z,20.75
2023-01-22T01:14:46.062Z,21.08
2023-01-22T01:15:17.618Z,21.15
2023-01-22T01:15:49.597Z,20.90
2023-01-22T01:16:29.181Z,20.60
2023-01-22T01:17:01.839Z,21.02
2023-01-22T01:17:34.687Z,22.27
2023-01-22T01:18:06.385Z,20.60
2023-01-22T01:18:38.039Z,21.35
2023-01-22T01:19:12.384Z,22.75
2023-01-22T01:19:51.340Z,21.85
2023-01-22T01:20:25.456Z,22.15
2023-01-22T01:20:58.094Z,20.13
2023-01-22T01:21:31.237Z,19.60
2023-01-22T01:22:03.586Z,21.50
2023-01-22T01:22:35.520Z,20.48
2023-01-22T01:23:07.261Z,20.98
2023-01-22T01:23:39.000Z,22.48
2023-01-22T01:24:11.018Z,22.23
2023-01-22T01:24:42.555Z,21.27
2023-01-22T01:25:14.255Z,20.40
2023-01-22T01:25:46.784Z,19.67
2023-01-22T01:26:18.433Z,19.73
2023-01-22T01:26:52.080Z,20.30
2023-01-22T01:27:23.672Z,19.83
2023-01-22T01:27:55.858Z,19.45
2023-01-22T01:28:28.849Z,20.15
2023-01-22T01:29:00.550Z,20.05
2023-01-22T01:29:32.168Z,19.83
2023-01-22T01:30:05.299Z,20.15
2023-01-22T01:30:36.862Z,18.70
2023-01-22T01:31:11.032Z,18.52
2023-01-22T01:31:42.871Z,19.38
2023-01-22T01:32:14.558Z,20.73
2023-01-22T01:32:46.112Z,20.63
2023-01-22T01:33:17.705Z,20.17
2023-01-22T01:33:49.756Z,20.00
2023-01-22T01:34:21.564Z,21.75
2023-01-22T01:34:53.245Z,20.45
2023-01-22T01:35:24.782Z,20.38
2023-01-22T01:36:05.625Z,20.48
2023-01-22T01:36:48.703Z,20.42
2023-01-22T01:37:21.001Z,19.67
2023-01-22T01:37:53.482Z,20.40
2023-01-22T01:38:25.066Z,22.02
2023-01-22T01:38:56.836Z,20.10
2023-01-22T01:39:28.614Z,19.92
2023-01-22T01:40:00.137Z,20.83
2023-01-22T01:40:31.733Z,21.58
2023-01-22T01:41:03.791Z,21.23
2023-01-22T01:41:36.424Z,20.60
2023-01-22T01:42:09.510Z,21.10
2023-01-22T01:42:42.402Z,21.73
2023-01-22T01:43:17.575Z,21.35
2023-01-22T01:44:29.234Z,20.85
2023-01-22T01:45:31.098Z,20.15
2023-01-22T01:46:37.045Z,17.08
2023-01-22T01:47:27.377Z,19.02
2023-01-22T01:48:29.873Z,18.00
2023-01-22T01:49:01.420Z,15.70
2023-01-22T01:49:38.542Z,18.33
2023-01-22T01:50:10.625Z,16.90
2023-01-22T01:50:46.713Z,16.98
2023-01-22T01:51:32.230Z,17.63
2023-01-22T01:52:13.486Z,19.05
2023-01-22T01:52:45.203Z,15.35
2023-01-22T01:53:16.781Z,16.58
2023-01-22T01:53:50.856Z,17.13
2023-01-22T01:54:22.545Z,17.83
2023-01-22T01:54:56.136Z,17.40
2023-01-22T01:55:30.522Z,18.95
2023-01-22T01:56:04.006Z,19.77
2023-01-22T01:56:40.005Z,21.13
2023-01-22T01:57:32.059Z,21.63
2023-01-22T01:58:08.420Z,19.02
2023-01-22T01:58:41.635Z,20.05
2023-01-22T01:59:15.046Z,20.98
2023-01-22T01:59:49.104Z,19.88
2023-01-22T02:00:20.764Z,21.70
2023-01-22T02:00:56.178Z,21.95
2023-01-22T02:01:27.909Z,20.60
2023-01-22T02:02:01.649Z,20.08
2023-01-22T02:02:33.208Z,21.08
2023-01-22T02:03:04.744Z,20.23
2023-01-22T02:03:36.603Z,20.05
2023-01-22T02:04:08.328Z,20.80
2023-01-22T02:04:41.495Z,21.48
2023-01-22T02:05:13.111Z,21.08
2023-01-22T02:05:45.561Z,20.67
2023-01-22T02:06:19.136Z,21.67
2023-01-22T02:06:50.781Z,20.25
2023-01-22T02:07:22.437Z,20.55
2023-01-22T02:07:55.150Z,23.48
2023-01-22T02:08:26.723Z,21.92
2023-01-22T02:09:00.533Z,21.40
2023-01-22T02:09:32.526Z,20.85
2023-01-22T02:10:06.387Z,21.23
2023-01-22T02:10:38.763Z,21.75
2023-01-22T02:11:11.269Z,20.75
2023-01-22T02:11:43.174Z,20.13
2023-01-22T02:12:15.213Z,22.20
2023-01-22T02:12:50.278Z,20.92
2023-01-22T02:13:25.590Z,20.63
2023-01-22T02:14:09.900Z,18.92
2023-01-22T02:14:44.037Z,18.30
2023-01-22T02:15:16.131Z,20.48
2023-01-22T02:15:47.680Z,19.10
2023-01-22T02:16:19.271Z,19.83
2023-01-22T02:17:11.709Z,19.38
2023-01-22T02:17:43.363Z,19.30
2023-01-22T02:18:14.968Z,19.67
2023-01-22T02:18:46.717Z,20.73
2023-01-22T02:19:18.281Z,20.08
2023-01-22T02:19:50.613Z,21.33
2023-01-22T02:20:22.236Z,20.02
2023-01-22T02:21:00.411Z,20.00
2023-01-22T02:21:31.925Z,20.40
2023-01-22T02:22:11.838Z,19.35
2023-01-22T02:22:43.525Z,20.20
2023-01-22T02:23:15.128Z,21.55
2023-01-22T02:23:46.694Z,19.92
2023-01-22T02:24:18.252Z,19.73
2023-01-22T02:24:50.443Z,21.77
2023-01-22T02:25:23.338Z,21.25
2023-01-22T02:25:55.982Z,20.05
2023-01-22T02:26:27.959Z,20.80
2023-01-22T02:26:59.704Z,20.88
2023-01-22T02:27:31.334Z,22.27
2023-01-22T02:28:02.911Z,21.48
2023-01-22T02:28:34.619Z,19.98
2023-01-22T02:29:11.198Z,20.45
2023-01-22T02:29:42.870Z,21.02
2023-01-22T02:30:16.064Z,21.10
2023-01-22T02:30:48.012Z,20.38
2023-01-22T02:31:20.461Z,19.83
2023-01-22T02:31:52.316Z,20.35
2023-01-22T02:32:25.124Z,21.90
2023-01-22T02:32:58.425Z,20.92
2023-01-22T02:33:29.993Z,21.55
2023-01-22T02:34:05.829Z,22.38
2023-01-22T02:34:37.500Z,20.50
2023-01-22T02:35:09.279Z,22.30
2023-01-22T02:35:41.475Z,20.92
2023-01-22T02:36:13.403Z,21.50
2023-01-22T02:36:45.437Z,22.55
2023-01-22T02:37:17.346Z,21.35
2023-01-22T02:37:49.276Z,21.80
2023-01-22T02:38:20.903Z,21.20
2023-01-22T02:38:52.532Z,20.95
2023-01-22T02:39:24.151Z,21.98
2023-01-22T02:39:55.974Z,21.80
2023-01-22T02:40:29.967Z,21.25
2023-01-22T02:41:03.088Z,20.16
2023-01-22T02:41:35.490Z,22.00
2023-01-22T02:42:08.455Z,19.65
2023-01-22T02:42:41.956Z,21.23
2023-01-22T02:43:13.653Z,20.38
2023-01-22T02:43:45.253Z,20.88
2023-01-22T02:44:17.051Z,20.77
2023-01-22T02:44:51.667Z,19.84
2023-01-22T02:45:24.275Z,19.48
2023-01-22T02:45:56.451Z,20.83
2023-01-22T02:46:28.186Z,20.13
2023-01-22T02:47:00.173Z,21.10
2023-01-22T02:47:34.966Z,19.88
2023-01-22T02:48:06.578Z,18.75
2023-01-22T02:48:39.449Z,19.52
2023-01-22T02:49:10.973Z,20.08
2023-01-22T02:49:42.534Z,20.18
2023-01-22T02:50:14.115Z,19.83
2023-01-22T02:50:45.865Z,20.90
2023-01-22T02:51:18.092Z,19.00
2023-01-22T02:51:51.464Z,20.50
2023-01-22T02:52:24.883Z,21.08
2023-01-22T02:52:56.550Z,19.92
2023-01-22T02:53:28.151Z,21.66
2023-01-22T02:53:59.881Z,20.17
2023-01-22T02:54:31.697Z,19.15
2023-01-22T02:55:03.673Z,19.02
2023-01-22T02:55:35.248Z,19.05
2023-01-22T02:56:08.474Z,18.92
2023-01-22T02:56:40.023Z,17.88
2023-01-22T02:57:13.228Z,18.75
2023-01-22T02:57:45.043Z,18.70
2023-01-22T02:58:17.345Z,18.25
2023-01-22T02:58:49.930Z,18.77
2023-01-22T02:59:21.498Z,18.04
2023-01-22T02:59:53.102Z,17.67
2023-01-22T03:00:24.781Z,19.28
2023-01-22T03:00:56.357Z,19.46
2023-01-22T03:01:28.153Z,19.00
2023-01-22T03:01:59.831Z,19.80
2023-01-22T03:02:32.180Z,19.46
2023-01-22T03:03:07.865Z,19.50
2023-01-22T03:03:39.447Z,18.98
2023-01-22T03:04:11.446Z,18.08
2023-01-22T03:04:43.265Z,17.98
2023-01-22T03:05:15.280Z,17.13
2023-01-22T03:05:51.234Z,16.14
2023-01-22T03:06:26.080Z,17.10
2023-01-22T03:06:57.698Z,18.00
2023-01-22T03:07:42.324Z,16.63
2023-01-22T03:08:14.189Z,16.88
2023-01-22T03:08:45.883Z,17.30
2023-01-22T03:09:17.768Z,15.35
2023-01-22T03:09:49.433Z,17.26
2023-01-22T03:10:21.600Z,17.25
2023-01-22T03:10:58.593Z,16.63
2023-01-22T03:11:33.454Z,16.13
2023-01-22T03:12:09.861Z,14.85
2023-01-22T03:13:00.809Z,16.02
2023-01-22T03:13:51.338Z,14.80
2023-01-22T03:14:41.535Z,14.62
2023-01-22T03:15:31.737Z,15.18
2023-01-22T03:16:22.604Z,16.70
2023-01-22T03:17:13.571Z,16.75
2023-01-22T03:18:03.610Z,13.63
2023-01-22T03:18:54.111Z,14.68
2023-01-22T03:19:44.095Z,13.45
2023-01-22T03:20:41.468Z,13.46
2023-01-22T03:21:22.639Z,13.07
2023-01-22T03:21:54.194Z,15.00
2023-01-22T03:22:26.930Z,14.62
2023-01-22T03:22:58.585Z,14.58
2023-01-22T03:23:32.751Z,11.38
2023-01-22T03:24:04.596Z,12.42
2023-01-22T03:24:37.230Z,13.55
2023-01-22T03:25:09.486Z,13.85
2023-01-22T03:25:42.290Z,13.40
2023-01-22T03:26:14.409Z,14.80
2023-01-22T03:26:46.662Z,14.94
2023-01-22T03:27:23.510Z,14.54
2023-01-22T03:28:21.206Z,15.13
2023-01-22T03:28:58.065Z,12.30
2023-01-22T03:29:29.666Z,14.00
2023-01-22T03:30:01.237Z,16.30
2023-01-22T03:30:38.790Z,14.92
2023-01-22T03:31:13.188Z,15.50
2023-01-22T03:31:48.408Z,14.32
2023-01-22T03:32:20.648Z,14.20
2023-01-22T03:32:52.148Z,14.70
2023-01-22T03:33:24.082Z,14.84
2023-01-22T03:33:55.620Z,13.88
2023-01-22T03:34:27.303Z,15.32
2023-01-22T03:35:01.829Z,12.57
2023-01-22T03:35:44.043Z,14.05
2023-01-22T03:36:23.084Z,14.55
2023-01-22T03:36:58.011Z,14.60
2023-01-22T03:37:29.642Z,13.57
2023-01-22T03:38:01.276Z,14.38
2023-01-22T03:38:33.205Z,15.15
2023-01-22T03:39:05.633Z,15.88
2023-01-22T03:39:37.173Z,14.95
2023-01-22T03:40:10.058Z,15.95
2023-01-22T03:40:43.680Z,14.52
2023-01-22T03:41:17.066Z,13.50
2023-01-22T03:41:49.829Z,15.68
2023-01-22T03:42:21.381Z,14.94
2023-01-22T03:42:53.489Z,14.12
2023-01-22T03:43:25.686Z,13.16
2023-01-22T03:44:01.293Z,13.96
2023-01-22T03:44:36.984Z,14.90
2023-01-22T03:45:10.026Z,13.50
2023-01-22T03:45:42.725Z,14.35
2023-01-22T03:46:20.025Z,13.08
2023-01-22T03:46:55.894Z,12.48
2023-01-22T03:47:27.649Z,13.65
2023-01-22T03:47:59.484Z,12.94
2023-01-22T03:48:36.835Z,13.12
2023-01-22T03:49:09.748Z,13.20
2023-01-22T03:49:41.515Z,14.00
2023-01-22T03:50:14.628Z,13.96
2023-01-22T03:50:46.570Z,14.05
2023-01-22T03:51:18.668Z,13.93
2023-01-22T03:51:52.609Z,13.66
2023-01-22T03:52:24.235Z,12.44
2023-01-22T03:52:58.179Z,12.95
2023-01-22T03:53:29.755Z,12.26
2023-01-22T03:54:01.425Z,14.08
2023-01-22T03:54:33.465Z,14.42
2023-01-22T03:55:08.251Z,12.74
2023-01-22T03:55:39.823Z,14.16
2023-01-22T03:56:15.108Z,12.88
2023-01-22T03:56:47.231Z,13.50
2023-01-22T03:57:31.023Z,14.02
2023-01-22T03:58:03.699Z,12.32
2023-01-22T03:58:35.474Z,14.02
2023-01-22T03:59:08.124Z,13.74
2023-01-22T03:59:39.844Z,12.90
2023-01-22T04:00:14.842Z,13.02
2023-01-22T04:00:48.607Z,12.80
2023-01-22T04:01:25.561Z,13.82
2023-01-22T04:01:57.450Z,12.27
2023-01-22T04:02:29.685Z,12.92
2023-01-22T04:03:14.313Z,12.88
2023-01-22T04:03:46.346Z,12.65
2023-01-22T04:04:18.116Z,12.27
2023-01-22T04:04:50.675Z,13.10
2023-01-22T04:05:22.221Z,14.84
2023-01-22T04:05:54.559Z,13.23
2023-01-22T04:06:26.675Z,12.80
2023-01-22T04:06:58.215Z,12.48
2023-01-22T04:07:30.940Z,13.85
2023-01-22T04:08:02.988Z,14.07
2023-01-22T04:08:37.141Z,13.44
2023-01-22T04:09:09.100Z,13.25
2023-01-22T04:09:50.532Z,14.18
2023-01-22T04:10:22.216Z,14.05
2023-01-22T04:10:55.478Z,14.28
2023-01-22T04:11:27.827Z,13.50
2023-01-22T04:11:59.589Z,13.68
2023-01-22T04:12:33.254Z,14.06
2023-01-22T04:13:04.783Z,14.20
2023-01-22T04:13:38.113Z,13.80
2023-01-22T04:14:10.165Z,14.90
2023-01-22T04:14:44.781Z,14.05
2023-01-22T04:15:16.379Z,14.07
2023-01-22T04:15:47.965Z,14.38
2023-01-22T04:16:42.139Z,13.45
2023-01-22T04:17:33.401Z,12.68
2023-01-22T04:18:23.609Z,11.30
2023-01-22T04:19:08.413Z,13.63
2023-01-22T04:19:58.504Z,12.48
2023-01-22T04:20:54.453Z,13.15
2023-01-22T04:21:42.192Z,12.30
2023-01-22T04:22:15.857Z,14.63
2023-01-22T04:22:48.688Z,15.24
2023-01-22T04:23:21.309Z,12.82
2023-01-22T04:23:54.304Z,15.05
2023-01-22T04:24:25.820Z,15.10
2023-01-22T04:24:58.270Z,13.00
2023-01-22T04:25:29.821Z,14.88
2023-01-22T04:26:01.900Z,14.80
2023-01-22T04:26:34.440Z,14.43
2023-01-22T04:27:07.548Z,15.27
2023-01-22T04:27:39.107Z,15.63
2023-01-22T04:28:12.121Z,15.25
2023-01-22T04:28:43.972Z,14.80
2023-01-22T04:29:17.357Z,15.43
2023-01-22T04:29:49.434Z,14.93
2023-01-22T04:30:22.097Z,14.23
2023-01-22T04:31:00.811Z,14.75
2023-01-22T04:31:51.177Z,14.43
2023-01-22T04:32:22.671Z,15.73
2023-01-22T04:33:07.788Z,13.35
2023-01-22T04:34:01.840Z,13.93
2023-01-22T04:34:36.958Z,14.23
2023-01-22T04:35:19.730Z,13.96
2023-01-22T04:35:58.254Z,15.12
2023-01-22T04:36:29.799Z,15.05
2023-01-22T04:37:01.353Z,13.00
2023-01-22T04:37:36.711Z,14.82
2023-01-22T04:38:11.524Z,14.10
2023-01-22T04:38:43.201Z,13.45
2023-01-22T04:39:14.749Z,14.52
2023-01-22T04:39:46.267Z,15.07
2023-01-22T04:40:18.331Z,13.93
2023-01-22T04:40:50.759Z,15.90
2023-01-22T04:41:22.363Z,13.92
2023-01-22T04:41:53.895Z,14.30
2023-01-22T04:42:27.080Z,14.15
2023-01-22T04:43:05.595Z,13.98
2023-01-22T04:43:37.981Z,14.82
2023-01-22T04:44:09.696Z,13.90
2023-01-22T04:44:41.436Z,13.30
2023-01-22T04:45:13.759Z,14.52
2023-01-22T04:45:46.212Z,15.52
2023-01-22T04:46:17.933Z,13.55
2023-01-22T04:46:49.506Z,15.16
2023-01-22T04:47:22.150Z,15.48
2023-01-22T04:47:54.739Z,15.45
2023-01-22T04:48:27.472Z,15.88
2023-01-22T04:48:59.043Z,14.45
2023-01-22T04:49:30.690Z,15.12
2023-01-22T04:50:02.474Z,15.70
2023-01-22T04:50:34.239Z,14.93
2023-01-22T04:51:06.154Z,18.65
2023-01-22T04:51:38.241Z,15.10
2023-01-22T04:52:09.992Z,14.60
2023-01-22T04:52:42.159Z,15.15
2023-01-22T04:53:13.741Z,15.68
2023-01-22T04:53:45.562Z,15.13
2023-01-22T04:54:17.412Z,14.85
2023-01-22T04:54:51.836Z,15.00
2023-01-22T04:55:27.297Z,15.10
2023-01-22T04:56:11.595Z,12.90
2023-01-22T04:56:43.710Z,12.73
2023-01-22T04:57:15.558Z,16.00
2023-01-22T04:57:47.568Z,15.85
2023-01-22T04:58:19.191Z,15.50
2023-01-22T04:58:50.756Z,15.70
2023-01-22T04:59:22.321Z,14.84
2023-01-22T04:59:55.128Z,16.58
2023-01-22T05:00:31.308Z,14.48
2023-01-22T05:01:05.358Z,16.08
2023-01-22T05:01:36.990Z,15.48
2023-01-22T05:02:09.347Z,15.20
2023-01-22T05:02:41.113Z,16.58
2023-01-22T05:03:13.295Z,18.52
2023-01-22T05:03:46.614Z,15.40
2023-01-22T05:04:18.738Z,16.40
2023-01-22T05:04:51.004Z,17.30
2023-01-22T05:05:22.577Z,18.52
2023-01-22T05:05:54.304Z,16.23
2023-01-22T05:06:25.836Z,17.10
2023-01-22T05:06:57.575Z,16.00
2023-01-22T05:07:29.921Z,17.00
2023-01-22T05:08:01.727Z,17.15
2023-01-22T05:08:34.621Z,16.23
2023-01-22T05:09:07.040Z,16.76
2023-01-22T05:09:54.198Z,16.20
2023-01-22T05:10:26.781Z,16.33
2023-01-22T05:11:02.272Z,17.63
2023-01-22T05:11:40.979Z,15.75
2023-01-22T05:12:12.495Z,17.00
2023-01-22T05:12:46.356Z,14.90
2023-01-22T05:13:17.930Z,16.30
2023-01-22T05:13:49.632Z,14.82
2023-01-22T05:14:21.952Z,16.50
2023-01-22T05:14:55.027Z,15.52
2023-01-22T05:15:27.289Z,16.13
2023-01-22T05:16:02.618Z,15.55
2023-01-22T05:16:34.566Z,17.13
2023-01-22T05:17:06.315Z,16.70
2023-01-22T05:17:38.579Z,16.05
2023-01-22T05:18:10.150Z,17.40
2023-01-22T05:18:46.631Z,16.35
2023-01-22T05:19:19.054Z,16.95
2023-01-22T05:19:50.631Z,16.88
2023-01-22T05:20:25.879Z,16.25
2023-01-22T05:20:57.788Z,17.13
2023-01-22T05:21:32.669Z,16.17
2023-01-22T05:22:04.699Z,16.00
2023-01-22T05:22:39.335Z,17.65
2023-01-22T05:23:11.109Z,16.60
2023-01-22T05:23:43.782Z,19.20
2023-01-22T05:24:15.352Z,18.08
2023-01-22T05:24:47.445Z,17.33
2023-01-22T05:25:19.505Z,17.15
2023-01-22T05:25:51.879Z,17.05
2023-01-22T05:26:31.185Z,18.02
2023-01-22T05:27:07.644Z,15.75
2023-01-22T05:27:46.708Z,18.23
2023-01-22T05:28:23.156Z,16.83
2023-01-22T05:29:25.635Z,16.58
2023-01-22T05:30:23.677Z,15.65
2023-01-22T05:31:14.058Z,16.42
2023-01-22T05:32:05.043Z,15.35
2023-01-22T05:32:39.743Z,16.77
2023-01-22T05:33:11.658Z,15.60
2023-01-22T05:33:45.047Z,16.83
2023-01-22T05:34:18.288Z,15.90
2023-01-22T05:34:50.025Z,16.80
2023-01-22T05:35:22.556Z,16.88
2023-01-22T05:35:58.411Z,17.25
2023-01-22T05:36:30.342Z,17.52
2023-01-22T05:37:06.381Z,17.15
2023-01-22T05:37:39.777Z,17.00
2023-01-22T05:38:12.396Z,17.08
2023-01-22T05:38:44.076Z,15.98
2023-01-22T05:39:17.131Z,16.95
2023-01-22T05:39:49.097Z,17.25
2023-01-22T05:40:22.293Z,17.67
2023-01-22T05:40:53.983Z,17.27
2023-01-22T05:41:26.367Z,15.13
2023-01-22T05:41:59.217Z,15.35
2023-01-22T05:42:30.901Z,16.00
2023-01-22T05:43:03.409Z,17.52
2023-01-22T05:43:38.173Z,15.55
2023-01-22T05:44:12.135Z,16.33
2023-01-22T05:44:44.962Z,15.52
2023-01-22T05:45:17.481Z,16.88
2023-01-22T05:46:24.131Z,13.13
2023-01-22T05:46:55.731Z,15.10
2023-01-22T05:47:51.615Z,13.40
2023-01-22T05:48:48.730Z,14.20
2023-01-22T05:49:27.606Z,14.02
2023-01-22T05:50:01.345Z,14.00
2023-01-22T05:50:32.913Z,13.80
2023-01-22T05:51:13.732Z,13.05
2023-01-22T05:51:45.292Z,14.95
2023-01-22T05:52:18.789Z,14.50
2023-01-22T05:52:54.287Z,13.95
2023-01-22T05:53:26.182Z,13.95
2023-01-22T05:53:57.790Z,13.45
2023-01-22T05:54:32.927Z,13.57
2023-01-22T05:55:05.444Z,14.32
2023-01-22T05:55:44.816Z,15.57
2023-01-22T05:56:16.974Z,14.43
2023-01-22T05:56:48.717Z,13.65
2023-01-22T05:57:20.654Z,14.20
2023-01-22T05:57:53.580Z,13.27
2023-01-22T05:58:27.472Z,12.95
2023-01-22T05:58:59.332Z,12.52
2023-01-22T05:59:30.980Z,14.25
2023-01-22T06:00:08.506Z,14.15
2023-01-22T06:00:48.008Z,13.73
2023-01-22T06:01:20.977Z,12.95
2023-01-22T06:01:56.005Z,13.32
2023-01-22T06:02:27.627Z,12.90
2023-01-22T06:03:02.295Z,14.13
2023-01-22T06:03:39.123Z,13.15
2023-01-22T06:04:11.431Z,13.73
2023-01-22T06:04:43.393Z,13.43
2023-01-22T06:06:07.727Z,12.73
2023-01-22T06:06:39.534Z,13.10
2023-01-22T06:07:13.862Z,13.13
2023-01-22T06:07:45.767Z,13.13
2023-01-22T06:08:17.393Z,13.27
2023-01-22T06:08:55.300Z,12.95
2023-01-22T06:09:29.464Z,13.00
2023-01-22T06:10:01.121Z,12.77
2023-01-22T06:10:33.501Z,11.65
2023-01-22T06:11:11.332Z,12.77
2023-01-22T06:11:42.894Z,12.98
2023-01-22T06:12:16.305Z,13.27
2023-01-22T06:12:48.062Z,12.30
2023-01-22T06:13:19.597Z,13.30
2023-01-22T06:13:55.733Z,11.85
2023-01-22T06:14:27.829Z,13.38
2023-01-22T06:15:02.080Z,13.85
2023-01-22T06:15:33.764Z,13.43
2023-01-22T06:16:18.046Z,12.68
2023-01-22T06:17:08.175Z,12.30
2023-01-22T06:17:45.106Z,12.75
2023-01-22T06:18:18.868Z,13.16
2023-01-22T06:18:50.530Z,12.18
2023-01-22T06:19:22.494Z,12.20
2023-01-22T06:19:57.393Z,12.85
2023-01-22T06:20:29.006Z,13.45
2023-01-22T06:21:04.143Z,11.82
2023-01-22T06:21:35.876Z,13.30
2023-01-22T06:22:07.706Z,12.65
2023-01-22T06:22:51.071Z,12.50
2023-01-22T06:23:22.845Z,12.23
2023-01-22T06:23:54.699Z,12.48
2023-01-22T06:24:26.602Z,12.82
2023-01-22T06:24:58.363Z,12.60
2023-01-22T06:25:36.829Z,13.88
2023-01-22T06:26:22.330Z,12.82
2023-01-22T06:26:54.021Z,13.00
2023-01-22T06:27:29.685Z,12.32
2023-01-22T06:28:05.187Z,13.48
2023-01-22T06:28:37.857Z,14.98
2023-01-22T06:29:09.398Z,12.98
2023-01-22T06:29:42.042Z,13.27
2023-01-22T06:30:13.740Z,12.70
2023-01-22T06:30:45.403Z,12.55
2023-01-22T06:31:17.002Z,12.48
2023-01-22T06:31:49.283Z,13.68
2023-01-22T06:32:23.245Z,13.00
2023-01-22T06:32:56.168Z,12.25
2023-01-22T06:33:27.733Z,12.48
2023-01-22T06:33:59.622Z,12.25
2023-01-22T06:34:31.288Z,14.73
2023-01-22T06:35:04.756Z,13.10
2023-01-22T06:35:36.317Z,12.88
2023-01-22T06:36:08.452Z,14.10
2023-01-22T06:36:43.505Z,13.54
2023-01-22T06:37:15.361Z,13.10
2023-01-22T06:37:47.642Z,13.57
2023-01-22T06:38:19.191Z,13.65
2023-01-22T06:38:50.853Z,12.25
2023-01-22T06:39:32.331Z,13.35
2023-01-22T06:40:21.914Z,12.68
2023-01-22T06:40:56.122Z,13.04
2023-01-22T06:41:28.046Z,14.27
2023-01-22T06:42:04.252Z,14.75
2023-01-22T06:42:39.036Z,14.00
2023-01-22T06:43:11.343Z,13.32
2023-01-22T06:43:43.699Z,12.73
2023-01-22T06:44:15.307Z,14.68
2023-01-22T06:44:47.868Z,13.35
2023-01-22T06:45:22.715Z,13.95
2023-01-22T06:45:58.222Z,13.65
2023-01-22T06:46:55.832Z,12.57
2023-01-22T06:47:32.043Z,12.75
2023-01-22T06:48:03.696Z,14.13
2023-01-22T06:48:35.416Z,14.50
2023-01-22T06:49:11.233Z,13.68
2023-01-22T06:49:44.137Z,14.18
2023-01-22T06:50:16.955Z,14.65
2023-01-22T06:50:48.835Z,13.45
2023-01-22T06:51:23.851Z,15.10
2023-01-22T06:51:55.588Z,14.95
2023-01-22T06:52:28.064Z,14.32
2023-01-22T06:53:01.101Z,15.18
2023-01-22T06:53:35.185Z,13.90
2023-01-22T06:54:11.015Z,14.48
2023-01-22T06:54:42.720Z,14.55
2023-01-22T06:55:14.925Z,13.40
2023-01-22T06:55:46.497Z,14.82
2023-01-22T06:56:18.040Z,14.45
2023-01-22T06:56:49.628Z,14.15
2023-01-22T06:57:22.673Z,14.40
2023-01-22T06:57:55.939Z,14.32
2023-01-22T06:58:27.991Z,14.30
2023-01-22T06:58:59.505Z,14.38
2023-01-22T06:59:31.186Z,15.25
2023-01-22T07:00:04.739Z,16.25
2023-01-22T07:00:36.382Z,14.82
2023-01-22T07:01:08.311Z,14.45
2023-01-22T07:01:40.028Z,15.25
2023-01-22T07:02:18.579Z,14.07
2023-01-22T07:02:50.691Z,14.48
2023-01-22T07:03:22.388Z,14.63
2023-01-22T07:03:54.045Z,15.35
2023-01-22T07:04:25.609Z,14.68
2023-01-22T07:04:59.742Z,15.10
2023-01-22T07:05:31.269Z,14.68
2023-01-22T07:06:04.255Z,13.85
2023-01-22T07:06:35.779Z,13.90
2023-01-22T07:07:07.367Z,14.40
2023-01-22T07:07:38.946Z,14.05
2023-01-22T07:08:19.140Z,14.50
2023-01-22T07:08:50.785Z,14.10
2023-01-22T07:09:22.560Z,13.50
2023-01-22T07:09:54.203Z,13.57
2023-01-22T07:10:25.810Z,14.00
2023-01-22T07:10:57.900Z,14.68
2023-01-22T07:11:29.525Z,14.60
2023-01-22T07:12:01.802Z,13.60
2023-01-22T07:12:33.739Z,14.35
2023-01-22T07:13:06.744Z,13.57
2023-01-22T07:13:38.262Z,13.98
2023-01-22T07:14:09.954Z,14.73
2023-01-22T07:14:41.475Z,13.95
2023-01-22T07:15:13.293Z,14.23
2023-01-22T07:15:47.903Z,13.52
2023-01-22T07:16:19.515Z,12.95
2023-01-22T07:16:51.162Z,13.82
2023-01-22T07:17:22.761Z,12.85
2023-01-22T07:17:54.509Z,13.95
2023-01-22T07:18:26.128Z,13.88
2023-01-22T07:18:57.685Z,13.45
2023-01-22T07:19:29.499Z,12.73